Time;durP1;ratioP1;P1;durP2;ratioP2;P2;SDS_P1;SDS_P2;PMS_P1;PMS_P2;Temp;Humidity;BMP_temperature;BMP_pressure;BME280_temperature;BME280_humidity;BME280_pressure;Samples;Min_cycle;Max_cycle;Signal;HPM_P1;HPM_P2
2022/05/25 00:00:08;;;;;;;;;;;;;;;12.82;100.00;98320.63;5096226;28;19924;-91
2022/05/25 00:02:38;;;;;;;;;;;;;;;13.02;100.00;98315.53;5095105;28;19924;-90
2022/05/25 00:05:08;;;;;;;;;;;;;;;12.86;100.00;98304.50;5095808;28;19928;-91
2022/05/25 00:07:35;;;;;;;;;;;;;;;12.73;100.00;98302.53;5078000;28;19924;-91
2022/05/25 00:10:03;;;;;;;;;;;;;;;12.69;100.00;98304.66;5061241;28;19924;-91
2022/05/25 00:12:31;;;;;;;;;;;;;;;12.69;100.00;98304.66;5078214;28;19924;-91
2022/05/25 00:15:01;;;;;;;;;;;;;;;12.56;100.00;98298.34;5061564;28;19997;-91
2022/05/25 00:17:28;;;;;;;;;;;;;;;12.67;100.00;98298.75;5044604;28;20264;-90
2022/05/25 00:20:01;;;;;;;;;;;;;;;12.64;100.00;98298.88;5077486;28;19993;-90
2022/05/25 00:22:46;;;;;;;;;;;;;;;12.59;100.00;98303.03;5077919;28;20287;-90
2022/05/25 00:25:19;;;;;;;;;;;;;;;12.71;100.00;98305.00;5077871;28;20019;-91
2022/05/25 00:27:47;;;;;;;;;;;;;;;12.80;100.00;98304.28;5077615;28;19924;-90
2022/05/25 00:30:15;;;;;;;;;;;;;;;13.16;100.00;98295.34;5077243;28;19924;-90
2022/05/25 00:32:42;;;;;;;;;;;;;;;13.23;100.00;98300.69;5094362;28;19943;-90
2022/05/25 00:35:12;;;;;;;;;;;;;;;13.11;100.00;98298.75;5094409;28;19974;-90
2022/05/25 00:37:39;;;;;;;;;;;;;;;13.02;100.00;98296.69;5094245;28;19924;-90
2022/05/25 00:40:09;;;;;;;;;;;;;;;13.21;100.00;98297.56;5093918;28;19931;-91
2022/05/25 00:42:38;;;;;;;;;;;;;;;13.35;100.00;98297.78;5077480;28;20295;-90
2022/05/25 00:45:06;;;;;;;;;;;;;;;13.15;100.00;98296.56;5060787;28;19924;-90
2022/05/25 00:47:34;;;;;;;;;;;;;;;13.29;100.00;98296.84;5060484;28;20028;-91
2022/05/25 00:50:02;;;;;;;;;;;;;;;13.37;100.00;98294.53;5077530;28;20058;-90
2022/05/25 00:52:30;;;;;;;;;;;;;;;13.37;100.00;98288.91;5076732;28;19924;-91
2022/05/25 00:55:05;;;;;;;;;;;;;;;13.33;100.00;98288.28;5094003;28;20398;-90
2022/05/25 00:57:34;;;;;;;;;;;;;;;13.36;100.00;98298.59;5076779;28;19932;-91
2022/05/25 01:00:11;;;;;;;;;;;;;;;13.32;100.00;98295.13;5076837;28;19935;-90
2022/05/25 01:02:39;;;;;;;;;;;;;;;13.40;100.00;98296.41;5060297;28;19924;-90
2022/05/25 01:05:08;;;;;;;;;;;;;;;13.44;100.00;98291.44;5077309;28;19935;-91
2022/05/25 01:07:41;;;;;;;;;;;;;;;13.47;100.00;98287.72;5076688;28;19985;-90
2022/05/25 01:10:35;;;;;;;;;;;;;;;13.45;100.00;98290.97;5060293;28;19982;-90
2022/05/25 01:13:02;;;;;;;;;;;;;;;13.53;100.00;98274.63;5093961;28;20049;-90
2022/05/25 01:15:35;;;;;;;;;;;;;;;13.37;100.00;98272.09;5060610;28;20383;-92
2022/05/25 01:18:25;;;;;;;;;;;;;;;13.37;100.00;98272.09;5093146;28;19925;-90
2022/05/25 01:21:01;;;;;;;;;;;;;;;13.26;100.00;98266.91;5054752;28;19947;-89
2022/05/25 01:23:46;;;;;;;;;;;;;;;13.45;100.00;98262.16;5059820;28;19924;-91
2022/05/25 01:26:14;;;;;;;;;;;;;;;13.33;100.00;98263.78;5076943;28;19931;-90
2022/05/25 01:28:56;;;;;;;;;;;;;;;13.45;100.00;98256.53;5076435;28;19931;-90
2022/05/25 01:31:36;;;;;;;;;;;;;;;13.34;100.00;98261.78;5059741;28;19941;-90
2022/05/25 01:34:24;;;;;;;;;;;;;;;13.34;100.00;98251.34;5076620;28;19924;-90
2022/05/25 01:36:55;;;;;;;;;;;;;;;13.08;100.00;98249.97;5065773;28;20004;-90
2022/05/25 01:39:24;;;;;;;;;;;;;;;13.12;100.00;98249.81;5059827;28;19935;-90
2022/05/25 01:41:59;;;;;;;;;;;;;;;13.47;100.00;98240.00;5093289;28;20306;-90
2022/05/25 01:44:38;;;;;;;;;;;;;;;13.43;100.00;98242.19;5076228;28;19931;-90
2022/05/25 01:47:06;;;;;;;;;;;;;;;13.63;100.00;98248.19;5059628;28;20012;-91
2022/05/25 01:49:35;;;;;;;;;;;;;;;13.40;100.00;98240.31;5093268;28;20395;-89
2022/05/25 01:52:08;;;;;;;;;;;;;;;13.45;100.00;98234.84;5059515;28;19979;-91
2022/05/25 01:54:36;;;;;;;;;;;;;;;13.20;100.00;98228.69;5076133;28;19931;-92
2022/05/25 01:57:07;;;;;;;;;;;;;;;13.41;100.00;98237.03;5059594;28;19924;-89
2022/05/25 01:59:34;;;;;;;;;;;;;;;13.47;100.00;98231.59;5075935;28;19930;-89
2022/05/25 02:04:50;;;;;;;;;;;;;;;13.48;100.00;98233.16;5075860;28;20298;-88
2022/05/25 02:07:27;;;;;;;;;;;;;;;13.26;100.00;98233.22;5059462;28;19928;-89
2022/05/25 02:10:08;;;;;;;;;;;;;;;13.18;100.00;98233.94;5076431;28;19924;-89
2022/05/25 02:12:45;;;;;;;;;;;;;;;13.18;100.00;98225.53;5042819;28;19931;-89
2022/05/25 02:15:13;;;;;;;;;;;;;;;13.08;100.00;98226.75;5075828;28;19989;-88
2022/05/25 02:17:43;;;;;;;;;;;;;;;13.24;100.00;98223.72;5092721;28;19960;-89
2022/05/25 02:20:13;;;;;;;;;;;;;;;13.31;100.00;98224.22;5092957;28;19931;-89
2022/05/25 02:22:45;;;;;;;;;;;;;;;13.03;100.00;98230.16;5076344;28;20359;-88
2022/05/25 02:25:18;;;;;;;;;;;;;;;12.88;100.00;98235.50;5075831;28;19935;-89
2022/05/25 02:27:49;;;;;;;;;;;;;;;12.85;100.00;98242.03;5076624;28;19930;-91
2022/05/25 02:30:23;;;;;;;;;;;;;;;12.74;100.00;98231.22;5061413;28;20363;-88
2022/05/25 02:32:53;;;;;;;;;;;;;;;12.88;100.00;98231.91;5079724;28;19924;-88
2022/05/25 02:35:21;;;;;;;;;;;;;;;12.72;100.00;98222.47;5079894;28;20058;-89
2022/05/25 02:37:50;;;;;;;;;;;;;;;12.67;100.00;98225.88;5096299;28;19931;-88
2022/05/25 02:40:17;;;;;;;;;;;;;;;12.67;100.00;98231.50;5096299;28;20011;-88
2022/05/25 02:42:44;;;;;;;;;;;;;;;12.75;100.00;98227.16;5096118;28;19924;-87
2022/05/25 02:45:12;;;;;;;;;;;;;;;12.85;100.00;98219.59;5079489;28;19963;-89
2022/05/25 02:47:39;;;;;;;;;;;;;;;12.97;100.00;98223.53;5045843;28;20391;-88
2022/05/25 02:50:06;;;;;;;;;;;;;;;12.81;100.00;98218.97;5045826;28;19924;-88
2022/05/25 02:52:33;;;;;;;;;;;;;;;12.85;100.00;98222.41;5095987;28;19931;-89
2022/05/25 02:55:01;;;;;;;;;;;;;;;12.90;100.00;98221.81;5079275;28;19924;-88
2022/05/25 02:57:28;;;;;;;;;;;;;;;12.74;100.00;98220.00;5095903;28;19924;-89
2022/05/25 02:59:55;;;;;;;;;;;;;;;13.00;100.00;98219.84;5079020;28;19924;-89
2022/05/25 03:02:26;;;;;;;;;;;;;;;13.13;100.00;98214.94;5063761;28;19936;-88
2022/05/25 03:04:53;;;;;;;;;;;;;;;12.91;100.00;98216.97;5079297;28;20019;-88
2022/05/25 03:07:20;;;;;;;;;;;;;;;12.92;100.00;98221.34;5095739;28;19924;-89
2022/05/25 03:09:47;;;;;;;;;;;;;;;12.91;100.00;98217.75;5078964;28;19971;-90
2022/05/25 03:12:14;;;;;;;;;;;;;;;13.25;100.00;98212.03;5078881;28;20363;-89
2022/05/25 03:14:42;;;;;;;;;;;;;;;13.27;100.00;98217.94;5079133;28;19977;-90
2022/05/25 03:17:12;;;;;;;;;;;;;;;13.11;100.00;98228.63;5078697;28;19928;-89
2022/05/25 03:19:40;;;;;;;;;;;;;;;13.11;100.00;98214.63;5078932;28;19924;-89
2022/05/25 03:22:08;;;;;;;;;;;;;;;13.21;100.00;98217.00;5095602;28;19930;-90
2022/05/25 03:24:36;;;;;;;;;;;;;;;12.93;100.00;98218.09;5095681;28;19927;-88
2022/05/25 03:27:03;;;;;;;;;;;;;;;12.87;100.00;98205.91;5095442;28;19935;-90
2022/05/25 03:29:31;;;;;;;;;;;;;;;12.99;100.00;98207.06;5061782;28;19948;-90
2022/05/25 03:31:58;;;;;;;;;;;;;;;12.69;100.00;98212.19;5078422;28;19930;-89
2022/05/25 03:34:26;;;;;;;;;;;;;;;12.63;100.00;98214.00;5078596;28;19985;-90
2022/05/25 03:36:56;;;;;;;;;;;;;;;13.03;100.00;98216.13;5095303;28;19931;-89
2022/05/25 03:39:24;;;;;;;;;;;;;;;13.02;100.00;98206.94;5078219;28;19946;-90
2022/05/25 03:41:59;;;;;;;;;;;;;;;13.05;100.00;98213.66;5078070;28;19931;-90
2022/05/25 03:44:26;;;;;;;;;;;;;;;13.27;100.00;98205.97;5095179;28;20015;-90
2022/05/25 03:46:54;;;;;;;;;;;;;;;13.22;100.00;98209.38;5061616;28;19924;-89
2022/05/25 03:49:21;;;;;;;;;;;;;;;13.11;100.00;98206.19;5095312;28;19924;-89
2022/05/25 03:51:48;;;;;;;;;;;;;;;13.09;100.00;98217.09;5078410;28;19931;-90
2022/05/25 03:54:16;;;;;;;;;;;;;;;13.10;100.00;98207.44;5096390;28;19924;-90
2022/05/25 03:56:44;;;;;;;;;;;;;;;13.06;100.00;98206.78;5061479;28;19947;-89
2022/05/25 03:59:11;;;;;;;;;;;;;;;12.79;100.00;98201.81;5078102;28;19928;-89
2022/05/25 04:01:38;;;;;;;;;;;;;;;13.00;100.00;98200.22;5094654;28;19924;-89
2022/05/25 04:04:05;;;;;;;;;;;;;;;13.12;100.00;98211.34;5078530;28;19931;-90
2022/05/25 04:06:32;;;;;;;;;;;;;;;13.17;100.00;98207.16;5095887;28;19928;-89
2022/05/25 04:08:59;;;;;;;;;;;;;;;13.33;100.00;98204.13;5061313;28;20361;-89
2022/05/25 04:11:26;;;;;;;;;;;;;;;13.25;100.00;98186.00;5077897;28;19924;-90
2022/05/25 04:13:53;;;;;;;;;;;;;;;13.04;100.00;98187.63;5077624;28;20290;-90
2022/05/25 04:16:20;;;;;;;;;;;;;;;13.28;100.00;98191.47;5094357;28;19924;-90
2022/05/25 04:18:48;;;;;;;;;;;;;;;13.15;100.00;98192.81;5095679;28;20010;-90
2022/05/25 04:21:15;;;;;;;;;;;;;;;13.21;100.00;98194.56;5061347;28;19932;-90
2022/05/25 04:23:42;;;;;;;;;;;;;;;13.24;100.00;98190.81;5095849;28;19928;-89
2022/05/25 04:26:09;;;;;;;;;;;;;;;13.16;100.00;98194.38;5094388;28;19924;-88
2022/05/25 04:28:37;;;;;;;;;;;;;;;13.22;100.00;98195.34;5094636;28;19924;-89
2022/05/25 04:31:04;;;;;;;;;;;;;;;13.36;100.00;98189.94;5077250;28;19931;-90
2022/05/25 04:33:31;;;;;;;;;;;;;;;13.27;100.00;98183.53;5094235;28;19973;-90
2022/05/25 04:35:58;;;;;;;;;;;;;;;13.38;100.00;98179.03;5095373;28;19924;-89
2022/05/25 04:38:25;;;;;;;;;;;;;;;13.29;100.00;98181.03;5094194;28;19926;-90
2022/05/25 04:40:53;;;;;;;;;;;;;;;13.22;100.00;98178.50;5077322;28;20620;-90
2022/05/25 04:43:24;;;;;;;;;;;;;;;12.73;100.00;98172.81;5094026;28;19946;-89
2022/05/25 04:45:52;;;;;;;;;;;;;;;13.16;100.00;98174.75;5093599;28;19997;-89
2022/05/25 04:48:23;;;;;;;;;;;;;;;12.91;100.00;98174.91;5093760;28;19931;-90
2022/05/25 04:50:51;;;;;;;;;;;;;;;13.20;100.00;98178.19;5076944;28;20282;-89
2022/05/25 04:53:20;;;;;;;;;;;;;;;13.23;100.00;98183.66;5093238;28;19925;-89
2022/05/25 04:58:36;;;;;;;;;;;;;;;13.29;100.00;98181.03;5094014;28;20049;-91
2022/05/25 05:01:04;;;;;;;;;;;;;;;13.01;100.00;98176.56;5076921;28;19928;-90
2022/05/25 05:03:31;;;;;;;;;;;;;;;12.84;100.00;98178.00;5060315;28;19946;-90
2022/05/25 05:05:58;;;;;;;;;;;;;;;12.66;100.00;98185.06;5077084;28;19959;-89
2022/05/25 05:08:26;;;;;;;;;;;;;;;12.99;100.00;98187.41;5076993;28;20054;-90
2022/05/25 05:10:54;;;;;;;;;;;;;;;13.10;100.00;98179.41;5076773;28;19928;-89
2022/05/25 05:13:21;;;;;;;;;;;;;;;13.05;100.00;98178.00;5043582;28;19931;-90
2022/05/25 05:15:49;;;;;;;;;;;;;;;13.15;100.00;98188.00;5093544;28;19969;-90
2022/05/25 05:18:18;;;;;;;;;;;;;;;13.26;100.00;98176.34;5060444;28;19924;-90
2022/05/25 05:21:18;;;;;;;;;;;;;;;13.18;100.00;98175.06;5016282;28;19968;-92
2022/05/25 05:23:45;;;;;;;;;;;;;;;13.14;100.00;98174.44;4984303;28;19979;-93
2022/05/25 05:26:13;;;;;;;;;;;;;;;13.23;100.00;98177.25;4983587;28;19952;-87
2022/05/25 05:28:41;;;;;;;;;;;;;;;13.13;100.00;98184.09;5015442;28;19925;-88
2022/05/25 05:31:09;;;;;;;;;;;;;;;13.26;100.00;98179.16;5015591;28;19925;-81
2022/05/25 05:33:36;;;;;;;;;;;;;;;13.25;100.00;98186.00;5015593;28;19979;-81
2022/05/25 05:36:10;;;;;;;;;;;;;;;12.95;100.00;98184.75;5015849;28;20016;-85
2022/05/25 05:38:42;;;;;;;;;;;;;;;12.87;100.00;98183.47;5035645;28;19925;-82
2022/05/25 05:41:10;;;;;;;;;;;;;;;13.00;100.00;98183.41;5025995;28;20454;-82
2022/05/25 05:43:38;;;;;;;;;;;;;;;13.00;100.00;98181.38;4978886;28;20367;-82
2022/05/25 05:46:06;;;;;;;;;;;;;;;12.73;100.00;98179.22;5027814;28;19925;-82
2022/05/25 05:48:34;;;;;;;;;;;;;;;12.96;100.00;98174.31;5031808;28;20680;-84
2022/05/25 05:51:03;;;;;;;;;;;;;;;12.90;100.00;98176.16;5015474;28;19927;-84
2022/05/25 05:53:31;;;;;;;;;;;;;;;12.93;100.00;98181.66;5031731;28;20032;-82
2022/05/25 05:55:59;;;;;;;;;;;;;;;12.85;100.00;98179.56;5038479;28;19947;-84
2022/05/25 05:58:27;;;;;;;;;;;;;;;12.62;100.00;98172.44;5093229;28;20022;-82
2022/05/25 06:00:54;;;;;;;;;;;;;;;12.66;100.00;98173.84;5093882;28;19947;-81
2022/05/25 06:03:21;;;;;;;;;;;;;;;12.64;100.00;98176.34;5092914;28;19924;-82
2022/05/25 06:05:48;;;;;;;;;;;;;;;12.87;100.00;98180.69;5097160;28;19924;-82
2022/05/25 06:08:17;;;;;;;;;;;;;;;12.66;100.00;98178.69;5098230;28;19978;-82
2022/05/25 06:10:45;;;;;;;;;;;;;;;12.67;100.00;98167.03;5080051;28;19965;-82
2022/05/25 06:13:13;;;;;;;;;;;;;;;12.81;100.00;98162.09;5096749;28;19954;-82
2022/05/25 06:21:18;;;;;;;;;;;;;;;12.92;100.00;98160.44;5098036;28;20310;-83
2022/05/25 06:23:45;;;;;;;;;;;;;;;12.91;100.00;98167.28;5096381;28;19989;-81
2022/05/25 06:26:14;;;;;;;;;;;;;;;12.93;100.00;98166.84;5096496;28;19924;-82
2022/05/25 06:28:42;;;;;;;;;;;;;;;12.81;100.00;98162.09;5096673;28;19924;-81
2022/05/25 06:31:09;;;;;;;;;;;;;;;13.05;100.00;98171.59;5096822;28;19928;-82
2022/05/25 06:33:38;;;;;;;;;;;;;;;12.93;100.00;98158.41;5062712;28;20011;-81
2022/05/25 06:36:13;;;;;;;;;;;;;;;12.99;100.00;98167.78;5096183;28;20582;-81
2022/05/25 06:38:40;;;;;;;;;;;;;;;13.51;100.00;98153.66;5096327;28;19924;-81
2022/05/25 06:41:07;;;;;;;;;;;;;;;13.25;100.00;98158.75;5096302;28;20326;-82
2022/05/25 06:43:34;;;;;;;;;;;;;;;13.41;100.00;98157.69;5096100;28;19924;-82
2022/05/25 06:46:02;;;;;;;;;;;;;;;13.53;100.00;98162.38;5097279;28;19924;-81
2022/05/25 06:48:31;;;;;;;;;;;;;;;13.84;100.00;98161.03;5097616;28;20439;-82
2022/05/25 06:51:07;;;;;;;;;;;;;;;13.75;100.00;98158.19;5079347;28;19924;-82
2022/05/25 06:53:34;;;;;;;;;;;;;;;14.13;100.00;98154.97;5097130;28;19924;-82
2022/05/25 06:56:01;;;;;;;;;;;;;;;14.00;100.00;98157.13;5095831;28;19931;-81
2022/05/25 06:58:28;;;;;;;;;;;;;;;14.22;100.00;98157.78;5096114;28;20282;-81
2022/05/25 07:00:55;;;;;;;;;;;;;;;14.21;100.00;98156.19;5096040;28;20494;-82
2022/05/25 07:03:22;;;;;;;;;;;;;;;13.73;100.00;98152.28;5096970;28;19931;-82
2022/05/25 07:05:49;;;;;;;;;;;;;;;13.63;100.00;98155.56;5078870;28;19930;-82
2022/05/25 07:08:17;;;;;;;;;;;;;;;13.61;100.00;98160.84;5096030;28;19931;-82
2022/05/25 07:10:46;;;;;;;;;;;;;;;13.76;100.00;98171.00;5078686;28;19935;-82
2022/05/25 07:13:13;;;;;;;;;;;;;;;13.86;100.00;98152.91;5078685;28;19924;-82
2022/05/25 07:15:41;;;;;;;;;;;;;;;13.64;100.00;98168.34;5095126;28;19955;-82
2022/05/25 07:18:08;;;;;;;;;;;;;;;13.37;100.00;98176.69;5095630;28;19928;-82
2022/05/25 07:20:35;;;;;;;;;;;;;;;13.57;100.00;98158.19;5096580;28;19931;-82
2022/05/25 07:23:03;;;;;;;;;;;;;;;13.46;100.00;98154.28;5095550;28;19928;-82
2022/05/25 07:25:30;;;;;;;;;;;;;;;13.61;100.00;98160.84;5096565;28;19987;-81
2022/05/25 07:27:58;;;;;;;;;;;;;;;13.87;100.00;98160.09;5095388;28;20303;-81
2022/05/25 07:30:25;;;;;;;;;;;;;;;13.08;100.00;98160.25;5095194;28;20296;-83
2022/05/25 07:32:52;;;;;;;;;;;;;;;13.48;100.00;98166.59;5095555;28;19928;-82
2022/05/25 07:35:22;;;;;;;;;;;;;;;13.68;100.00;98152.13;5094890;28;20276;-79
2022/05/25 07:37:51;;;;;;;;;;;;;;;13.86;100.00;98163.34;5095160;28;19931;-80
2022/05/25 07:40:21;;;;;;;;;;;;;;;13.99;100.00;98156.38;5094735;28;19923;-79
2022/05/25 07:42:50;;;;;;;;;;;;;;;13.74;100.00;98144.63;5095113;28;19925;-80
2022/05/25 07:45:17;;;;;;;;;;;;;;;13.44;100.00;98145.53;5096217;28;19971;-78
2022/05/25 07:47:44;;;;;;;;;;;;;;;13.33;100.00;98156.44;5095665;28;20286;-77
2022/05/25 07:56:16;;;;;;;;;;;;;;;13.54;100.00;98147.13;5096291;28;19943;-79
2022/05/25 07:58:44;;;;;;;;;;;;;;;13.02;100.00;98150.06;5094844;28;20453;-80
2022/05/25 08:01:13;;;;;;;;;;;;;;;13.55;100.00;98155.06;5094849;28;19924;-80
2022/05/25 08:06:27;;;;;;;;;;;;;;;13.40;100.00;98147.72;5096132;28;20027;-80
2022/05/25 08:08:55;;;;;;;;;;;;;;;13.25;100.00;98146.72;5094737;28;19928;-80
2022/05/25 08:11:24;;;;;;;;;;;;;;;13.52;100.00;98141.19;5096017;28;19924;-79
2022/05/25 08:13:55;;;;;;;;;;;;;;;13.34;100.00;98146.75;5095660;28;20276;-80
2022/05/25 08:16:22;;;;;;;;;;;;;;;13.42;100.00;98142.44;5094613;28;20291;-79
2022/05/25 08:18:49;;;;;;;;;;;;;;;13.62;100.00;98135.13;5095530;28;20018;-80
2022/05/25 08:21:17;;;;;;;;;;;;;;;13.64;100.00;98135.44;5094451;28;19924;-80
2022/05/25 08:23:51;;;;;;;;;;;;;;;13.77;100.00;98132.47;5077530;28;20372;-82
2022/05/25 08:26:18;;;;;;;;;;;;;;;13.78;100.00;98143.22;5095320;28;19924;-81
2022/05/25 08:28:45;;;;;;;;;;;;;;;13.93;100.00;98132.19;5076704;28;19928;-81
2022/05/25 08:31:12;;;;;;;;;;;;;;;13.65;100.00;98137.00;5093135;28;19924;-81
2022/05/25 08:33:39;;;;;;;;;;;;;;;13.79;100.00;98127.19;5077900;28;20439;-81
2022/05/25 08:36:06;;;;;;;;;;;;;;;14.09;100.00;98120.63;5094713;28;19924;-81
2022/05/25 08:38:33;;;;;;;;;;;;;;;13.95;100.00;98121.28;5095175;28;19930;-80
2022/05/25 08:41:00;;;;;;;;;;;;;;;13.90;100.00;98131.06;5094520;28;20069;-81
2022/05/25 08:43:34;;;;;;;;;;;;;;;14.32;100.00;98123.59;5094273;28;19927;-80
2022/05/25 08:46:04;;;;;;;;;;;;;;;14.50;100.00;98122.78;5077687;28;20011;-80
2022/05/25 08:48:32;;;;;;;;;;;;;;;14.08;100.00;98107.84;5094528;28;19924;-81
2022/05/25 08:51:01;;;;;;;;;;;;;;;14.42;100.00;98110.28;5095097;28;19924;-80
2022/05/25 08:53:33;;;;;;;;;;;;;;;14.15;100.00;98105.47;5094153;28;19946;-80
2022/05/25 08:56:18;;;;;;;;;;;;;;;13.74;100.00;98089.28;5094160;28;19931;-81
2022/05/25 08:58:49;;;;;;;;;;;;;;;14.29;100.00;98113.31;5076927;28;20014;-81
2022/05/25 09:01:39;;;;;;;;;;;;;;;13.98;100.00;98103.47;5076835;28;20018;-81
2022/05/25 09:04:07;;;;;;;;;;;;;;;14.25;100.00;98111.91;5071236;28;20035;-80
2022/05/25 09:06:34;;;;;;;;;;;;;;;14.10;100.00;98110.97;5055772;28;19924;-81
2022/05/25 09:09:07;;;;;;;;;;;;;;;14.39;100.00;98116.84;5055568;28;19924;-81
2022/05/25 09:12:00;;;;;;;;;;;;;;;14.32;100.00;98117.19;5055981;28;19935;-80
2022/05/25 09:14:37;;;;;;;;;;;;;;;14.02;100.00;98104.09;5070281;28;19931;-80
2022/05/25 09:17:08;;;;;;;;;;;;;;;14.39;100.00;98117.66;5056022;28;19968;-80
2022/05/25 09:19:37;;;;;;;;;;;;;;;14.49;100.00;98116.38;5072465;28;19973;-81
2022/05/25 09:22:10;;;;;;;;;;;;;;;14.56;100.00;98111.66;5055405;28;20022;-82
2022/05/25 09:24:37;;;;;;;;;;;;;;;14.40;100.00;98107.19;5055652;28;20035;-81
2022/05/25 09:27:06;;;;;;;;;;;;;;;14.25;100.00;98106.28;5055742;28;19925;-82
2022/05/25 09:29:33;;;;;;;;;;;;;;;14.58;100.00;98107.16;5054909;28;20314;-80
2022/05/25 09:32:06;;;;;;;;;;;;;;;14.41;100.00;98120.78;5055576;28;20314;-79
2022/05/25 09:34:37;;;;;;;;;;;;;;;14.39;100.00;98114.03;5055132;28;20019;-79
2022/05/25 09:37:40;;;;;;;;;;;;;;;14.57;100.00;98125.25;5070625;28;20027;-80
2022/05/25 09:40:14;;;;;;;;;;;;;;;14.79;100.00;98123.00;5032987;28;20026;-80
2022/05/25 09:42:48;;;;;;;;;;;;;;;14.53;100.00;98110.59;5070682;28;19928;-80
2022/05/25 09:45:15;;;;;;;;;;;;;;;14.85;100.00;98109.84;5053962;28;19940;-80
2022/05/25 09:47:44;;;;;;;;;;;;;;;14.73;100.00;98122.09;5053861;28;19944;-80
2022/05/25 09:50:35;;;;;;;;;;;;;;;14.85;100.00;98121.09;5069731;28;20417;-80
2022/05/25 09:53:04;;;;;;;;;;;;;;;15.02;100.00;98125.09;5053731;28;19939;-80
2022/05/25 09:55:43;;;;;;;;;;;;;;;15.03;100.00;98121.03;5053773;28;19931;-80
2022/05/25 09:58:21;;;;;;;;;;;;;;;15.18;100.00;98123.91;5037260;28;19924;-80
2022/05/25 10:01:15;;;;;;;;;;;;;;;15.35;100.00;98125.88;5070560;28;19924;-80
2022/05/25 10:03:43;;;;;;;;;;;;;;;15.56;100.00;98124.03;5036203;28;19928;-79
2022/05/25 10:06:34;;;;;;;;;;;;;;;15.48;100.00;98131.31;5070610;28;19925;-80
2022/05/25 10:09:09;;;;;;;;;;;;;;;15.40;100.00;98124.47;5070514;28;19932;-80
2022/05/25 10:11:40;;;;;;;;;;;;;;;15.65;100.00;98127.59;5054062;28;19933;-80
2022/05/25 10:14:23;;;;;;;;;;;;;;;15.42;100.00;98128.34;5053910;28;19971;-80
2022/05/25 10:16:50;;;;;;;;;;;;;;;15.70;100.00;98120.50;5093006;28;19924;-80
2022/05/25 10:19:18;;;;;;;;;;;;;;;15.78;100.00;98116.84;5091411;28;19974;-80
2022/05/25 10:21:56;;;;;;;;;;;;;;;15.68;100.00;98126.63;5093356;28;19924;-80
2022/05/25 10:24:26;;;;;;;;;;;;;;;15.66;100.00;98123.50;5092739;28;20391;-81
2022/05/25 10:26:55;;;;;;;;;;;;;;;15.44;100.00;98131.47;5091872;28;19924;-81
2022/05/25 10:38:12;;;;;;;;;;;;;;;15.76;100.00;98133.47;5092677;28;19931;-83
2022/05/25 10:40:44;;;;;;;;;;;;;;;16.04;100.00;98134.78;5093653;28;20046;-82
2022/05/25 10:43:23;;;;;;;;;;;;;;;15.89;100.00;98131.16;5076644;28;19993;-83
2022/05/25 10:45:53;;;;;;;;;;;;;;;16.07;100.00;98130.22;5093726;28;19924;-83
2022/05/25 10:48:20;;;;;;;;;;;;;;;16.17;100.00;98135.31;5058419;28;20058;-83
2022/05/25 10:50:56;;;;;;;;;;;;;;;16.27;100.00;98121.16;5092666;28;20359;-82
2022/05/25 10:53:44;;;;;;;;;;;;;;;16.45;100.00;98137.91;5078748;28;19924;-83
2022/05/25 10:56:21;;;;;;;;;;;;;;;16.23;100.00;98119.28;5078964;28;20272;-83
2022/05/25 10:59:03;;;;;;;;;;;;;;;16.75;100.00;98114.84;5079199;28;20011;-82
2022/05/25 11:01:46;;;;;;;;;;;;;;;16.84;100.00;98116.81;5094474;28;19928;-82
2022/05/25 11:04:29;;;;;;;;;;;;;;;16.88;100.00;98117.38;5097134;28;19950;-82
2022/05/25 11:07:17;;;;;;;;;;;;;;;16.79;100.00;98118.28;5097023;28;19947;-82
2022/05/25 11:09:48;;;;;;;;;;;;;;;17.06;100.00;98120.75;5062617;28;19924;-82
2022/05/25 11:12:15;;;;;;;;;;;;;;;17.07;100.00;98138.47;5096078;28;19924;-81
2022/05/25 11:14:45;;;;;;;;;;;;;;;16.99;100.00;98134.50;5095613;28;19928;-81
2022/05/25 11:17:16;;;;;;;;;;;;;;;17.18;100.00;98138.63;5095996;28;19974;-81
2022/05/25 11:20:04;;;;;;;;;;;;;;;17.45;100.00;98136.25;5078824;28;19928;-81
2022/05/25 11:22:35;;;;;;;;;;;;;;;17.00;100.00;98127.56;5091877;28;19924;-81
2022/05/25 11:25:21;;;;;;;;;;;;;;;16.97;100.00;98134.19;5095632;28;19930;-81
2022/05/25 11:28:00;;;;;;;;;;;;;;;16.85;100.00;98126.81;5095692;28;20011;-81
2022/05/25 11:30:30;;;;;;;;;;;;;;;17.22;100.00;98133.56;5096729;28;19931;-81
2022/05/25 11:33:28;;;;;;;;;;;;;;;16.98;100.00;98097.03;5078559;28;20014;-81
2022/05/25 11:36:48;;;;;;;;;;;;;;;16.97;100.00;98137.00;5094012;28;20006;-81
2022/05/25 11:39:34;;;;;;;;;;;;;;;16.92;100.00;98151.81;5074054;28;20014;-82
2022/05/25 11:42:21;;;;;;;;;;;;;;;17.27;100.00;98149.81;5057777;28;19952;-81
2022/05/25 11:44:58;;;;;;;;;;;;;;;16.85;100.00;98149.38;5057548;28;19931;-82
2022/05/25 11:47:31;;;;;;;;;;;;;;;16.64;100.00;98153.38;5057363;28;19929;-81
2022/05/25 11:50:08;;;;;;;;;;;;;;;16.19;100.00;98166.59;5057457;28;20434;-81
2022/05/25 11:52:45;;;;;;;;;;;;;;;16.25;100.00;98159.03;5074311;28;19935;-81
2022/05/25 11:55:26;;;;;;;;;;;;;;;16.33;100.00;98155.84;5057128;28;19925;-81
2022/05/25 11:58:22;;;;;;;;;;;;;;;16.61;100.00;98168.44;5057486;28;19924;-82
2022/05/25 12:01:02;;;;;;;;;;;;;;;16.52;100.00;98172.13;5065213;28;19932;-82
2022/05/25 12:03:43;;;;;;;;;;;;;;;16.54;100.00;98169.59;5023823;28;19931;-81
2022/05/25 12:06:19;;;;;;;;;;;;;;;16.75;100.00;98185.38;5073394;28;19940;-81
2022/05/25 12:08:55;;;;;;;;;;;;;;;16.94;100.00;98180.31;5071041;28;20011;-81
2022/05/25 12:11:25;;;;;;;;;;;;;;;16.92;100.00;98191.31;5094025;28;19959;-81
2022/05/25 12:14:11;;;;;;;;;;;;;;;17.28;100.00;98188.06;5075812;28;19951;-82
2022/05/25 12:16:41;;;;;;;;;;;;;;;16.46;100.00;98190.22;5093923;28;19928;-82
2022/05/25 12:19:14;;;;;;;;;;;;;;;16.63;100.00;98194.13;5093806;28;19925;-82
2022/05/25 12:21:47;;;;;;;;;;;;;;;16.45;100.00;98194.31;5060149;28;19931;-82
2022/05/25 12:24:31;;;;;;;;;;;;;;;16.59;100.00;98199.16;5093283;28;20031;-82
2022/05/25 12:27:01;;;;;;;;;;;;;;;16.22;100.00;98205.09;5093479;28;19924;-81
2022/05/25 12:29:34;;;;;;;;;;;;;;;16.22;100.00;98213.53;5093019;28;19963;-81
2022/05/25 12:32:02;;;;;;;;;;;;;;;16.37;100.00;98210.78;5094593;28;19947;-82
2022/05/25 12:34:34;;;;;;;;;;;;;;;16.52;100.00;98217.25;5093142;28;20363;-81
2022/05/25 12:37:02;;;;;;;;;;;;;;;17.16;100.00;98223.03;5076333;28;19924;-81
2022/05/25 12:39:42;;;;;;;;;;;;;;;17.08;100.00;98208.53;5076258;28;20220;-81
2022/05/25 12:42:24;;;;;;;;;;;;;;;16.61;100.00;98216.38;5093121;28;20424;-82
2022/05/25 12:50:57;;;;;;;;;;;;;;;17.02;100.00;98226.63;5075896;28;19924;-81
2022/05/25 12:53:24;;;;;;;;;;;;;;;17.03;100.00;98220.50;5094048;28;20371;-81
2022/05/25 12:56:03;;;;;;;;;;;;;;;17.13;100.00;98221.19;5093910;28;19924;-81
2022/05/25 12:58:33;;;;;;;;;;;;;;;17.06;100.00;98210.28;5092463;28;19928;-84
2022/05/25 13:01:06;;;;;;;;;;;;;;;17.27;100.00;98209.09;5092755;28;19924;-82
2022/05/25 13:03:34;;;;;;;;;;;;;;;17.42;100.00;98215.47;5092873;28;19924;-82
2022/05/25 13:06:02;;;;;;;;;;;;;;;17.47;100.00;98226.91;5093815;28;19924;-82
2022/05/25 13:08:45;;;;;;;;;;;;;;;17.09;100.00;98237.53;5075744;28;19997;-82
2022/05/25 13:11:30;;;;;;;;;;;;;;;17.50;100.00;98237.22;5075857;28;19931;-82
2022/05/25 13:13:58;;;;;;;;;;;;;;;17.40;100.00;98230.09;5091934;28;19924;-83
2022/05/25 13:16:40;;;;;;;;;;;;;;;17.36;100.00;98234.38;5093786;28;19928;-82
2022/05/25 13:19:26;;;;;;;;;;;;;;;17.50;100.00;98253.38;5093543;28;19928;-82
2022/05/25 13:21:53;;;;;;;;;;;;;;;17.32;100.00;98267.69;5092300;28;19930;-82
2022/05/25 13:24:23;;;;;;;;;;;;;;;17.33;100.00;98264.38;5075779;28;19982;-82
2022/05/25 13:26:58;;;;;;;;;;;;;;;17.51;100.00;98271.88;5092263;28;19924;-82
2022/05/25 13:29:38;;;;;;;;;;;;;;;17.55;100.00;98256.28;5075550;28;20375;-82
2022/05/25 13:32:13;;;;;;;;;;;;;;;17.35;100.00;98278.00;5076016;28;19924;-82